Time;durP1;ratioP1;P1;durP2;ratioP2;P2;SDS_P1;SDS_P2;PMS_P1;PMS_P2;Temp;Humidity;BMP_temperature;BMP_pressure;BME280_temperature;BME280_humidity;BME280_pressure;Samples;Min_cycle;Max_cycle;Signal;HPM_P1;HPM_P2
2021/11/20 00:02:03;;;;;;;13.10;11.43;;;;;;;4.25;100.00;100026.17;1743390;82;21423;-44
2021/11/20 00:04:30;;;;;;;16.67;12.07;;;;;;;4.25;100.00;100026.17;1743452;82;21247;-44
2021/11/20 00:06:59;;;;;;;21.65;13.15;;;;;;;4.25;100.00;100019.77;1743447;82;21111;-44
2021/11/20 00:09:27;;;;;;;24.72;12.53;;;;;;;4.28;100.00;100018.08;1714938;82;21015;-44
2021/11/20 00:11:58;;;;;;;22.05;12.25;;;;;;;4.34;100.00;100020.20;1743388;82;20968;-44
2021/11/20 00:14:25;;;;;;;14.93;10.80;;;;;;;4.40;100.00;100014.66;1743344;82;20976;-43
2021/11/20 00:16:54;;;;;;;17.10;11.90;;;;;;;4.46;100.00;100009.97;1743424;82;20997;-43
2021/11/20 00:19:22;;;;;;;23.30;12.15;;;;;;;4.52;100.00;100016.37;1743275;82;21130;-43
2021/11/20 00:21:57;;;;;;;19.40;12.28;;;;;;;4.55;100.00;100004.83;1743291;82;20936;-43
2021/11/20 00:24:29;;;;;;;20.68;12.23;;;;;;;4.57;100.00;100005.67;1743635;82;20941;-43
2021/11/20 00:26:56;;;;;;;40.20;13.28;;;;;;;4.62;100.00;100000.97;1743562;82;21550;-44
2021/11/20 00:31:59;;;;;;;54.65;13.00;;;;;;;4.65;100.00;99998.39;1708220;82;21781;-44
2021/11/20 00:34:30;;;;;;;73.57;15.48;;;;;;;4.65;100.00;99994.55;1743267;82;20933;-44
2021/11/20 00:36:57;;;;;;;26.45;12.58;;;;;;;4.66;100.00;99993.28;1743514;82;21004;-44
2021/11/20 00:39:28;;;;;;;33.78;13.15;;;;;;;4.67;100.00;99986.02;1713955;82;21530;-44
2021/11/20 00:41:55;;;;;;;40.08;11.53;;;;;;;4.68;100.00;99977.46;1743481;82;20928;-44
2021/11/20 00:44:22;;;;;;;45.25;15.53;;;;;;;4.68;100.00;99985.59;1743515;82;21139;-44
2021/11/20 00:46:49;;;;;;;79.65;16.40;;;;;;;4.68;100.00;99977.91;1743288;82;20928;-44
2021/11/20 00:49:19;;;;;;;25.92;13.05;;;;;;;4.69;100.00;99980.89;1743318;82;20992;-44
2021/11/20 00:51:46;;;;;;;19.05;12.68;;;;;;;4.67;100.00;99967.20;1743345;82;21043;-44
2021/11/20 00:54:15;;;;;;;32.55;13.65;;;;;;;4.67;100.00;99967.20;1743685;82;20999;-44
2021/11/20 00:56:44;;;;;;;19.73;12.23;;;;;;;4.71;100.00;99963.80;1743295;82;21100;-44
2021/11/20 00:59:12;;;;;;;32.85;13.65;;;;;;;4.70;100.00;99949.27;1747401;81;20949;-44
2021/11/20 01:01:46;;;;;;;44.85;14.35;;;;;;;4.71;100.00;99945.40;1749254;82;21027;-44
2021/11/20 01:04:13;;;;;;;66.95;14.78;;;;;;;4.72;100.00;99946.27;1749275;82;20951;-45
2021/11/20 01:06:42;;;;;;;18.20;12.30;;;;;;;4.75;100.00;99934.72;1749214;82;20932;-44
2021/11/20 01:09:13;;;;;;;16.65;11.75;;;;;;;4.74;100.00;99940.70;1749232;81;20972;-44
2021/11/20 01:14:28;;;;;;;14.35;12.18;;;;;;;4.80;100.00;99920.58;1797686;79;22727;-44
2021/11/20 01:16:56;;;;;;;17.67;11.73;;;;;;;4.80;100.00;99916.31;1757415;81;20936;-45
2021/11/20 01:19:23;;;;;;;14.43;11.57;;;;;;;4.82;100.00;99917.61;1750107;81;21067;-45
2021/11/20 01:22:10;;;;;;;12.95;11.22;;;;;;;4.83;100.00;99900.08;1749140;82;20971;-45
2021/11/20 01:24:55;;;;;;;14.25;11.12;;;;;;;4.86;100.00;99892.37;1681123;84;21670;-45
2021/11/20 01:27:24;;;;;;;13.18;10.38;;;;;;;4.88;100.00;99885.52;1734163;82;20909;-45
2021/11/20 01:29:54;;;;;;;13.58;12.18;;;;;;;4.89;100.00;99885.94;1749059;81;20983;-45
2021/11/20 01:32:21;;;;;;;13.65;11.45;;;;;;;4.84;100.00;99876.97;1748928;81;21131;-45
2021/11/20 01:34:48;;;;;;;13.62;11.03;;;;;;;4.81;100.00;99871.86;1749134;82;20979;-45
2021/11/20 01:37:15;;;;;;;13.28;11.70;;;;;;;4.80;100.00;99864.16;1749162;82;20971;-45
2021/11/20 01:39:44;;;;;;;13.93;11.83;;;;;;;4.79;100.00;99853.06;1749123;82;20905;-45
2021/11/20 01:42:20;;;;;;;13.25;11.08;;;;;;;4.78;100.00;99843.67;1745817;82;20941;-45
2021/11/20 01:44:59;;;;;;;12.30;11.08;;;;;;;4.75;100.00;99836.83;1748853;82;21230;-45
2021/11/20 01:48:12;;;;;;;12.53;10.72;;;;;;;4.73;100.00;99818.03;1747842;82;20909;-43
2021/11/20 01:50:41;;;;;;;13.85;11.35;;;;;;;4.73;100.00;99826.17;1749011;82;20987;-43
2021/11/20 01:53:17;;;;;;;14.30;11.05;;;;;;;4.70;100.00;99818.50;1748909;81;21643;-43
2021/11/20 01:56:04;;;;;;;11.43;10.23;;;;;;;4.70;100.00;99814.66;1749421;82;20964;-44
2021/11/20 01:59:02;;;;;;;11.85;10.53;;;;;;;4.68;100.00;99808.23;1747853;82;22043;-44
2021/11/20 02:01:51;;;;;;;12.95;11.05;;;;;;;4.69;100.00;99801.41;1748976;81;21514;-44
2021/11/20 02:04:40;;;;;;;11.60;10.48;;;;;;;4.66;100.00;99798.83;1746266;81;20972;-44
2021/11/20 02:07:18;;;;;;;12.10;10.80;;;;;;;4.68;100.00;99801.83;1749497;82;21047;-44
2021/11/20 02:10:07;;;;;;;11.63;10.53;;;;;;;4.70;100.00;99794.14;1749231;81;20941;-43
2021/11/20 02:12:57;;;;;;;11.95;10.70;;;;;;;4.70;100.00;99789.02;1746058;81;21210;-45
2021/11/20 02:15:36;;;;;;;13.00;11.53;;;;;;;4.72;100.00;99793.70;1735799;82;20988;-44
2021/11/20 02:18:05;;;;;;;12.53;10.55;;;;;;;4.74;100.00;99791.98;1714352;82;21569;-44
2021/11/20 02:20:53;;;;;;;13.43;11.25;;;;;;;4.77;100.00;99786.83;1735918;81;21008;-44
2021/11/20 02:23:21;;;;;;;12.98;10.50;;;;;;;4.83;100.00;99782.94;1733579;82;20968;-44
2021/11/20 02:25:49;;;;;;;15.72;10.75;;;;;;;4.89;100.00;99775.20;1713006;82;21765;-44
2021/11/20 02:28:19;;;;;;;15.88;11.00;;;;;;;4.98;100.00;99773.47;1732100;82;20905;-44
2021/11/20 02:30:49;;;;;;;15.95;11.63;;;;;;;5.08;100.00;99756.30;1735499;82;20960;-44
2021/11/20 02:33:19;;;;;;;15.58;11.35;;;;;;;5.17;100.00;99763.48;1713230;82;21656;-44
2021/11/20 02:35:54;;;;;;;12.60;10.50;;;;;;;5.20;100.00;99758.77;1735011;82;20885;-44
2021/11/20 02:38:25;;;;;;;20.40;10.72;;;;;;;5.21;100.00;99751.94;1735229;82;21065;-43
2021/11/20 02:40:54;;;;;;;11.83;10.55;;;;;;;5.23;100.00;99747.19;1735374;82;20976;-44
2021/11/20 02:43:21;;;;;;;15.43;10.48;;;;;;;5.20;100.00;99741.25;1735292;82;21498;-44
2021/11/20 02:45:53;;;;;;;15.72;10.85;;;;;;;5.23;100.00;99739.94;1734497;82;21503;-44
2021/11/20 02:48:20;;;;;;;14.30;10.55;;;;;;;5.22;100.00;99736.95;1735323;82;20917;-44
2021/11/20 02:51:04;;;;;;;17.07;11.18;;;;;;;5.23;100.00;99729.67;1735386;82;22025;-44
2021/11/20 02:53:40;;;;;;;12.60;11.20;;;;;;;5.22;100.00;99727.97;1711592;82;21028;-44
2021/11/20 02:56:09;;;;;;;;;;;;;;;5.21;100.00;99724.54;1738119;82;20952;-44
2021/11/20 02:58:36;;;;;;;13.05;11.38;;;;;;;5.21;100.00;99713.44;1735294;81;20429;-44
2021/11/20 03:01:17;;;;;;;16.80;11.33;;;;;;;5.20;100.00;99702.77;1735568;82;21001;-44
2021/11/20 03:03:44;;;;;;;13.43;10.85;;;;;;;5.20;100.00;99703.59;1732182;82;21881;-45
2021/11/20 03:06:11;;;;;;;14.20;11.70;;;;;;;5.19;100.00;99687.78;1735671;82;20897;-44
2021/11/20 03:08:38;;;;;;;14.50;12.07;;;;;;;5.18;100.00;99671.97;1735384;82;21526;-44
2021/11/20 03:11:08;;;;;;;17.35;12.18;;;;;;;5.18;100.00;99674.12;1735160;81;21558;-44
2021/11/20 03:13:36;;;;;;;13.80;11.88;;;;;;;5.20;100.00;99668.12;1738456;81;21032;-44
2021/11/20 03:16:05;;;;;;;17.82;11.57;;;;;;;5.21;100.00;99673.22;1743420;81;21127;-43
2021/11/20 03:18:32;;;;;;;14.33;12.33;;;;;;;5.24;100.00;99667.22;1743488;82;20885;-43
2021/11/20 03:20:59;;;;;;;15.83;11.97;;;;;;;5.23;100.00;99665.52;1714136;82;21044;-44
2021/11/20 03:23:31;;;;;;;13.38;11.48;;;;;;;5.22;100.00;99653.55;1743469;82;20928;-43
2021/11/20 03:25:58;;;;;;;17.90;11.83;;;;;;;5.21;100.00;99647.55;1743622;82;20972;-44
2021/11/20 03:28:25;;;;;;;13.55;10.55;;;;;;;5.23;100.00;99652.24;1714154;82;21242;-44
2021/11/20 03:30:53;;;;;;;16.07;11.50;;;;;;;5.24;100.00;99642.84;1743484;82;21505;-44
2021/11/20 03:33:20;;;;;;;13.60;11.57;;;;;;;5.25;100.00;99631.27;1743426;82;20999;-44
2021/11/20 03:35:47;;;;;;;13.22;10.93;;;;;;;5.26;100.00;99633.41;1743418;82;21007;-43
2021/11/20 03:38:16;;;;;;;14.15;11.97;;;;;;;5.24;100.00;99624.43;1741794;82;20913;-44
2021/11/20 03:40:42;;;;;;;14.40;11.68;;;;;;;5.25;100.00;99617.59;1743460;82;21082;-44
2021/11/20 03:43:10;;;;;;;17.85;11.28;;;;;;;5.25;100.00;99622.73;1743493;82;20940;-44
2021/11/20 03:45:38;;;;;;;14.18;11.80;;;;;;;5.24;100.00;99610.77;1743546;82;21006;-44
2021/11/20 03:48:05;;;;;;;14.15;11.40;;;;;;;5.24;100.00;99600.50;1743348;81;20987;-44
2021/11/20 03:50:32;;;;;;;15.15;12.10;;;;;;;5.25;100.00;99604.77;1743536;82;20936;-44
2021/11/20 03:52:59;;;;;;;15.72;11.95;;;;;;;5.26;100.00;99594.92;1743352;82;21097;-44
2021/11/20 03:55:33;;;;;;;16.55;11.93;;;;;;;5.28;100.00;99589.33;1743280;81;20901;-44
2021/11/20 03:58:00;;;;;;;13.88;11.03;;;;;;;5.28;100.00;99583.75;1743370;82;21009;-44
2021/11/20 04:00:31;;;;;;;14.58;11.35;;;;;;;5.32;100.00;99592.28;1743613;82;21115;-45
2021/11/20 04:02:59;;;;;;;12.98;11.57;;;;;;;5.34;100.00;99587.98;1743453;82;20968;-45
2021/11/20 04:05:30;;;;;;;13.98;10.75;;;;;;;5.37;100.00;99584.09;1743559;82;21166;-44
2021/11/20 04:07:56;;;;;;;14.33;11.60;;;;;;;5.39;100.00;99566.95;1743313;82;21338;-44
2021/11/20 04:10:24;;;;;;;13.00;10.25;;;;;;;5.36;100.00;99582.39;1714058;82;21004;-44
2021/11/20 04:12:50;;;;;;;13.00;10.65;;;;;;;5.37;100.00;99574.27;1743109;82;21038;-45
2021/11/20 04:15:21;;;;;;;11.90;10.28;;;;;;;5.37;100.00;99572.54;1735530;82;20933;-45
2021/11/20 04:17:48;;;;;;;11.75;10.25;;;;;;;5.36;100.00;99564.42;1735122;81;21116;-45
2021/11/20 04:20:18;;;;;;;10.75;9.75;;;;;;;5.39;100.00;99561.82;1735159;82;20885;-44
2021/11/20 04:22:46;;;;;;;11.15;9.93;;;;;;;5.41;100.00;99557.52;1735123;82;21024;-45
2021/11/20 04:25:15;;;;;;;10.65;8.93;;;;;;;5.40;100.00;99558.39;1714156;82;21004;-44
2021/11/20 04:27:54;;;;;;;11.28;9.28;;;;;;;5.45;100.00;99553.20;1734399;82;20933;-45
2021/11/20 04:30:23;;;;;;;11.15;8.58;;;;;;;5.45;100.00;99547.66;1733767;82;21158;-45
2021/11/20 04:32:50;;;;;;;8.05;7.30;;;;;;;5.49;100.00;99552.30;1735385;82;21514;-44
2021/11/20 04:35:17;;;;;;;15.78;8.18;;;;;;;5.55;100.00;99543.69;1735187;81;21012;-45
2021/11/20 04:37:45;;;;;;;9.68;7.25;;;;;;;5.61;100.00;99540.61;1735316;82;21517;-46
2021/11/20 04:40:13;;;;;;;13.90;7.37;;;;;;;5.69;100.00;99540.94;1735188;81;20960;-44
2021/11/20 04:42:40;;;;;;;20.88;7.97;;;;;;;5.76;100.00;99530.99;1735350;82;21094;-44
2021/11/20 04:45:09;;;;;;;14.13;7.90;;;;;;;5.78;100.00;99533.10;1735169;82;20901;-44
2021/11/20 04:47:38;;;;;;;7.50;6.80;;;;;;;5.77;100.00;99521.13;1735533;82;20992;-44
2021/11/20 04:50:07;;;;;;;19.35;8.10;;;;;;;5.80;100.00;99528.79;1735135;82;20909;-43
2021/11/20 04:52:34;;;;;;;24.12;7.03;;;;;;;5.84;100.00;99534.75;1735470;82;20969;-43
2021/11/20 04:55:01;;;;;;;8.00;7.25;;;;;;;5.81;100.00;99520.67;1735184;81;21183;-44
2021/11/20 04:57:29;;;;;;;21.02;7.78;;;;;;;5.81;100.00;99525.80;1735105;82;21023;-44
2021/11/20 04:59:56;;;;;;;12.28;6.90;;;;;;;5.83;100.00;99531.77;1735118;82;21072;-43
2021/11/20 05:02:24;;;;;;;10.70;6.62;;;;;;;5.86;100.00;99535.57;1735273;82;20886;-43
2021/11/20 05:04:52;;;;;;;31.27;7.55;;;;;;;5.84;100.00;99525.34;1714059;82;20960;-44
2021/11/20 05:07:19;;;;;;;7.15;6.45;;;;;;;5.90;100.00;99521.39;1714202;82;21056;-44
2021/11/20 05:09:45;;;;;;;6.37;5.78;;;;;;;5.94;100.00;99504.64;1735222;82;20961;-43
2021/11/20 05:12:12;;;;;;;6.25;5.65;;;;;;;5.96;100.00;99526.89;1735248;82;20967;-44
2021/11/20 05:14:40;;;;;;;7.00;5.83;;;;;;;5.99;100.00;99515.70;1743009;81;21014;-44
2021/11/20 05:17:07;;;;;;;7.33;6.15;;;;;;;6.00;100.00;99520.83;1749272;82;20956;-43
2021/11/20 05:19:37;;;;;;;6.22;5.62;;;;;;;6.04;100.00;99519.94;1749220;82;21151;-44
2021/11/20 05:22:04;;;;;;;6.30;5.72;;;;;;;6.06;100.00;99520.34;1749181;82;20992;-44
2021/11/20 05:24:31;;;;;;;22.40;7.28;;;;;;;6.13;100.00;99516.81;1749443;80;21007;-44
2021/11/20 05:27:01;;;;;;;43.70;8.53;;;;;;;6.20;100.00;99533.86;1721417;82;21486;-43
2021/11/20 05:32:12;;;;;;;6.12;5.62;;;;;;;6.25;100.00;99528.20;1749080;82;21102;-44
2021/11/20 05:34:41;;;;;;;8.55;6.55;;;;;;;6.27;100.00;99531.59;1748814;82;20939;-44
2021/11/20 05:37:08;;;;;;;11.48;6.30;;;;;;;6.30;100.00;99517.83;1749466;82;21003;-44
2021/11/20 05:39:35;;;;;;;9.63;6.33;;;;;;;6.31;100.00;99524.24;1749146;82;20975;-43
2021/11/20 05:42:02;;;;;;;10.35;6.33;;;;;;;6.38;100.00;99508.72;1749270;82;20975;-43
2021/11/20 05:44:29;;;;;;;6.78;5.60;;;;;;;6.41;100.00;99515.95;1749137;81;21127;-44
2021/11/20 05:46:59;;;;;;;8.13;7.05;;;;;;;6.44;100.00;99524.03;1749168;81;20928;-44
2021/11/20 05:49:28;;;;;;;7.35;6.67;;;;;;;6.46;100.00;99527.00;1749198;82;21540;-44
2021/11/20 05:51:55;;;;;;;7.47;6.83;;;;;;;6.56;100.00;99521.27;1721471;82;21545;-44
2021/11/20 05:54:22;;;;;;;7.42;6.72;;;;;;;6.63;100.00;99509.17;1749371;82;20944;-43
2021/11/20 05:56:51;;;;;;;8.13;7.37;;;;;;;6.65;100.00;99509.12;1748618;82;21192;-44
2021/11/20 05:59:18;;;;;;;8.30;7.58;;;;;;;6.68;100.00;99509.06;1749034;82;20985;-44
2021/11/20 06:01:46;;;;;;;9.90;7.03;;;;;;;6.73;100.00;99506.83;1721449;82;21000;-44
2021/11/20 06:04:14;;;;;;;10.55;7.47;;;;;;;6.79;100.00;99504.59;1749491;82;20983;-45
2021/11/20 06:06:41;;;;;;;8.38;7.58;;;;;;;6.81;100.00;99495.55;1749398;82;20960;-44
2021/11/20 06:09:08;;;;;;;7.60;6.55;;;;;;;6.84;100.00;99487.34;1749272;82;21149;-44
2021/11/20 06:11:35;;;;;;;7.55;6.95;;;;;;;6.89;100.00;99487.27;1749277;82;21018;-44
2021/11/20 06:14:04;;;;;;;7.75;7.05;;;;;;;6.92;100.00;99490.20;1746576;81;21482;-44
2021/11/20 06:16:33;;;;;;;10.10;7.25;;;;;;;6.98;100.00;99493.97;1714383;82;21021;-44
2021/11/20 06:19:00;;;;;;;7.05;6.50;;;;;;;7.03;100.00;99486.55;1714712;82;21598;-45
2021/11/20 06:21:27;;;;;;;7.60;6.20;;;;;;;7.09;100.00;99489.45;1714704;82;21060;-45
2021/11/20 06:23:54;;;;;;;7.37;6.47;;;;;;;7.12;100.00;99482.95;1735182;82;20948;-44
2021/11/20 06:26:21;;;;;;;7.12;6.30;;;;;;;7.19;100.00;99472.11;1735421;82;20920;-45
2021/11/20 06:28:49;;;;;;;6.95;6.35;;;;;;;7.27;100.00;99461.66;1714366;82;21027;-45
2021/11/20 06:31:17;;;;;;;7.03;6.17;;;;;;;7.32;100.00;99467.09;1734949;81;21019;-45
2021/11/20 06:33:46;;;;;;;6.28;5.78;;;;;;;7.43;100.00;99469.45;1735482;81;21786;-44
2021/11/20 06:36:30;;;;;;;6.08;5.58;;;;;;;7.57;100.00;99461.42;1720066;82;21105;-45
2021/11/20 06:38:59;;;;;;;6.17;5.58;;;;;;;7.69;100.00;99459.02;1730006;81;21033;-45
2021/11/20 06:41:26;;;;;;;6.08;5.67;;;;;;;7.77;100.00;99467.87;1735245;81;20956;-45
2021/11/20 06:43:53;;;;;;;5.85;5.40;;;;;;;7.86;100.00;99466.82;1735276;82;21008;-45
2021/11/20 06:46:21;;;;;;;6.53;5.75;;;;;;;7.92;100.00;99455.08;1735552;82;21024;-45
2021/11/20 06:48:49;;;;;;;6.87;6.08;;;;;;;8.01;100.00;99454.88;1735476;82;21498;-45
2021/11/20 06:51:18;;;;;;;6.00;5.47;;;;;;;8.09;100.00;99458.99;1735219;82;20972;-45
2021/11/20 06:53:53;;;;;;;5.58;5.03;;;;;;;8.13;100.00;99464.48;1725794;82;21977;-45
2021/11/20 06:56:30;;;;;;;6.75;4.87;;;;;;;8.16;100.00;99464.39;1725704;82;21049;-45
2021/11/20 06:59:18;;;;;;;6.00;5.15;;;;;;;8.16;100.00;99464.39;1720230;82;21077;-46
2021/11/20 07:01:39;;;;;;;6.28;5.33;;;;;;;8.15;100.00;99457.12;1734322;82;20964;-46
2021/11/20 07:04:11;;;;;;;11.33;5.58;;;;;;;8.14;100.00;99454.56;1735250;82;21538;-45
2021/11/20 07:06:45;;;;;;;5.28;4.87;;;;;;;8.08;100.00;99458.13;1715982;82;21021;-45
2021/11/20 07:09:12;;;;;;;5.50;4.90;;;;;;;8.00;100.00;99458.77;1735635;82;20983;-45
2021/11/20 07:11:39;;;;;;;6.83;5.40;;;;;;;7.96;100.00;99454.57;1735204;81;21949;-44
2021/11/20 07:14:06;;;;;;;5.60;5.10;;;;;;;7.93;100.00;99443.05;1735630;81;21019;-45
2021/11/20 07:16:34;;;;;;;6.50;6.00;;;;;;;7.89;100.00;99442.27;1743495;82;20952;-45
2021/11/20 07:19:01;;;;;;;8.38;5.80;;;;;;;7.85;100.00;99452.24;1743560;82;20924;-45
2021/11/20 07:21:43;;;;;;;19.80;6.47;;;;;;;7.80;100.00;99435.59;1743572;82;20984;-45
2021/11/20 07:24:15;;;;;;;10.30;6.12;;;;;;;7.83;100.00;99432.11;1742567;82;21165;-45
2021/11/20 07:26:43;;;;;;;24.87;6.72;;;;;;;7.84;100.00;99435.09;1743503;82;21451;-45
2021/11/20 07:29:11;;;;;;;22.42;5.97;;;;;;;7.84;100.00;99435.09;1743481;82;21007;-45
2021/11/20 07:31:43;;;;;;;31.27;5.30;;;;;;;7.89;100.00;99433.25;1740002;82;20909;-45
2021/11/20 07:34:09;;;;;;;31.05;6.15;;;;;;;7.91;100.00;99444.36;1743499;82;20943;-45
2021/11/20 07:36:38;;;;;;;48.42;6.40;;;;;;;7.95;100.00;99429.23;1743518;82;20968;-45
2021/11/20 07:39:10;;;;;;;51.88;6.92;;;;;;;7.99;100.00;99448.05;1714365;82;20987;-44
2021/11/20 07:41:37;;;;;;;41.73;6.28;;;;;;;8.01;100.00;99432.11;1743330;82;20937;-45
2021/11/20 07:44:05;;;;;;;27.80;5.42;;;;;;;8.04;100.00;99425.16;1743163;82;21430;-44
2021/11/20 07:46:35;;;;;;;26.37;5.85;;;;;;;8.05;100.00;99431.14;1713948;82;21075;-45
2021/11/20 07:49:04;;;;;;;44.95;7.60;;;;;;;8.08;100.00;99417.34;1743872;82;21122;-45
2021/11/20 07:51:35;;;;;;;19.87;5.25;;;;;;;8.10;100.00;99431.04;1743350;81;20921;-45
2021/11/20 07:54:03;;;;;;;10.95;4.97;;;;;;;8.12;100.00;99437.00;1743646;82;22152;-45
2021/11/20 07:56:30;;;;;;;9.90;4.30;;;;;;;8.10;100.00;99439.64;1743294;82;21496;-45
2021/11/20 07:58:59;;;;;;;12.58;4.80;;;;;;;8.05;100.00;99438.45;1743560;82;21552;-45
2021/11/20 08:01:26;;;;;;;20.30;5.65;;;;;;;8.02;100.00;99428.64;1714067;82;21239;-45
2021/11/20 08:03:53;;;;;;;20.35;15.80;;;;;;;7.97;100.00;99427.48;1714073;82;20913;-45
2021/11/20 08:06:37;;;;;;;12.88;4.90;;;;;;;7.94;100.00;99422.84;1667020;85;20962;-45
2021/11/20 08:09:24;;;;;;;28.42;5.72;;;;;;;7.94;100.00;99428.83;1620624;88;21046;-46
2021/11/20 08:11:52;;;;;;;12.65;8.00;;;;;;;7.94;100.00;99417.23;1629342;88;21081;-44
2021/11/20 08:14:21;;;;;;;44.53;27.65;;;;;;;7.94;100.00;99436.55;1669955;81;20957;-44
2021/11/20 08:17:03;;;;;;;89.13;47.33;;;;;;;7.93;100.00;99432.74;1735096;82;20932;-46
2021/11/20 08:19:51;;;;;;;23.30;5.53;;;;;;;7.93;100.00;99432.28;1715962;82;20988;-44
2021/11/20 08:22:36;;;;;;;5.95;3.60;;;;;;;7.98;100.00;99434.34;1735563;82;22194;-45
2021/11/20 08:25:07;;;;;;;7.10;6.40;;;;;;;8.15;100.00;99427.47;1735686;82;21436;-46
2021/11/20 08:27:35;;;;;;;20.43;3.80;;;;;;;8.29;100.00;99434.86;1735295;82;21132;-45
2021/11/20 08:30:06;;;;;;;5.35;3.30;;;;;;;8.38;100.00;99424.76;1734901;82;20925;-46
2021/11/20 08:32:35;;;;;;;9.35;3.08;;;;;;;8.49;100.00;99430.94;1714864;82;20976;-46
2021/11/20 08:35:05;;;;;;;27.80;3.60;;;;;;;8.58;100.00;99422.11;1733018;82;21067;-45
2021/11/20 08:37:50;;;;;;;8.28;2.70;;;;;;;8.70;100.00;99414.48;1735300;82;20886;-44
2021/11/20 08:40:29;;;;;;;11.70;2.58;;;;;;;8.79;100.00;99399.20;1733553;82;21176;-44
2021/11/20 08:42:58;;;;;;;6.70;2.30;;;;;;;8.88;100.00;99392.51;1735194;82;21072;-44
2021/11/20 08:45:27;;;;;;;16.12;2.98;;;;;;;8.96;100.00;99383.23;1735525;82;20953;-44
2021/11/20 08:47:55;;;;;;;11.63;2.35;;;;;;;9.01;100.00;99386.55;1735097;82;20961;-44
2021/11/20 08:50:28;;;;;;;2.10;1.65;;;;;;;9.03;100.00;99379.60;1735403;82;21565;-44
2021/11/20 08:52:56;;;;;;;22.35;2.65;;;;;;;9.05;100.00;99374.78;1735564;82;21881;-44
2021/11/20 08:55:24;;;;;;;4.30;2.40;;;;;;;9.07;100.00;99376.03;1735122;82;20968;-44
2021/11/20 08:57:54;;;;;;;10.32;2.50;;;;;;;9.07;100.00;99365.71;1734870;82;20956;-45
2021/11/20 09:00:28;;;;;;;57.55;3.50;;;;;;;9.16;100.00;99362.02;1714083;82;21471;-44
2021/11/20 09:03:28;;;;;;;31.10;3.00;;;;;;;9.31;100.00;99374.91;1735357;82;20894;-44
2021/11/20 09:06:16;;;;;;;6.25;2.27;;;;;;;9.42;100.00;99364.25;1714460;82;21137;-44
2021/11/20 09:09:16;;;;;;;33.88;2.98;;;;;;;9.55;100.00;99370.70;1678358;82;21040;-45
2021/11/20 09:12:04;;;;;;;19.73;2.70;;;;;;;9.67;99.82;99366.89;1735109;82;21072;-45
2021/11/20 09:14:37;;;;;;;4.50;2.10;;;;;;;9.77;97.91;99369.59;1714245;82;21035;-45
2021/11/20 09:17:13;;;;;;;29.82;2.70;;;;;;;9.81;97.54;99361.27;1700606;82;21502;-45
2021/11/20 09:19:41;;;;;;;7.60;2.30;;;;;;;9.89;96.81;99360.59;1735343;82;21134;-44
2021/11/20 09:22:08;;;;;;;9.53;2.52;;;;;;;10.05;95.12;99348.42;1735093;82;21513;-45
2021/11/20 09:24:40;;;;;;;207.70;9.18;;;;;;;10.14;94.57;99352.45;1734962;81;20866;-45
2021/11/20 09:27:11;;;;;;;34.67;2.92;;;;;;;10.17;94.75;99363.97;1734146;82;21482;-45
2021/11/20 09:29:39;;;;;;;6.47;2.40;;;;;;;10.12;94.04;99355.53;1714384;82;21063;-45
2021/11/20 09:32:07;;;;;;;11.53;2.42;;;;;;;10.09;92.29;99362.94;1735094;82;21082;-45
2021/11/20 09:34:34;;;;;;;18.73;2.62;;;;;;;10.04;92.43;99373.45;1735166;81;20890;-45
2021/11/20 09:37:01;;;;;;;36.25;3.35;;;;;;;10.08;91.64;99366.88;1735383;82;21564;-45
2021/11/20 09:39:35;;;;;;;25.05;2.72;;;;;;;10.10;91.49;99362.50;1715262;82;21458;-46
2021/11/20 09:42:40;;;;;;;19.02;3.12;;;;;;;10.20;89.36;99362.57;1735432;82;20993;-46
2021/11/20 09:45:17;;;;;;;126.60;6.25;;;;;;;10.22;89.25;99363.36;1663204;82;21345;-46
2021/11/20 09:47:56;;;;;;;6.62;2.00;;;;;;;10.25;89.04;99365.87;1735079;82;21007;-46
2021/11/20 09:50:49;;;;;;;24.90;2.72;;;;;;;10.29;88.20;99339.42;1738547;82;21554;-46
2021/11/20 09:53:16;;;;;;;30.37;3.67;;;;;;;10.32;87.38;99372.52;1734031;82;20924;-46
2021/11/20 09:55:48;;;;;;;14.68;2.70;;;;;;;10.25;86.94;99372.33;1714248;82;21047;-47
2021/11/20 09:58:24;;;;;;;46.02;2.70;;;;;;;10.23;86.12;99371.55;1735766;82;21239;-46
2021/11/20 10:01:36;;;;;;;6.62;2.12;;;;;;;10.26;86.12;99363.67;1735362;82;20961;-46
2021/11/20 10:04:12;;;;;;;6.00;2.35;;;;;;;10.25;85.90;99375.35;1735355;82;20999;-46
2021/11/20 10:06:46;;;;;;;8.83;2.40;;;;;;;10.27;85.70;99377.44;1735436;82;20921;-46
2021/11/20 10:09:22;;;;;;;3.12;2.45;;;;;;;10.31;84.77;99377.29;1714547;82;20989;-46
2021/11/20 10:12:01;;;;;;;;;;;;;;;10.37;84.79;99380.55;1717012;82;21008;-46
2021/11/20 10:14:33;;;;;;;3.62;2.50;;;;;;;10.52;83.74;99373.59;1735274;82;20174;-45
2021/11/20 10:17:24;;;;;;;7.15;2.30;;;;;;;10.68;82.66;99356.20;1735182;81;20980;-46
2021/11/20 10:19:55;;;;;;;11.88;3.58;;;;;;;10.87;81.08;99373.22;1735290;82;20961;-44
2021/11/20 10:22:52;;;;;;;9.35;2.70;;;;;;;10.99;80.04;99369.30;1733565;82;21011;-46
2021/11/20 10:25:48;;;;;;;7.75;2.40;;;;;;;10.98;79.68;99359.84;1735344;82;22313;-44
2021/11/20 10:28:52;;;;;;;8.40;3.10;;;;;;;10.87;79.78;99375.34;1735285;82;21581;-45
2021/11/20 10:31:40;;;;;;;5.35;2.30;;;;;;;10.71;80.51;99369.89;1735499;82;20993;-45
2021/11/20 10:34:15;;;;;;;14.58;3.08;;;;;;;10.63;80.87;99363.69;1684460;82;20972;-45
2021/11/20 10:36:53;;;;;;;13.35;2.27;;;;;;;10.59;80.17;99373.77;1735477;82;21467;-45
2021/11/20 10:39:28;;;;;;;5.37;2.77;;;;;;;10.66;79.63;99372.23;1734936;82;21141;-46
2021/11/20 10:42:06;;;;;;;7.67;2.98;;;;;;;10.62;79.33;99393.05;1735487;82;21565;-46
2021/11/20 10:44:41;;;;;;;22.75;3.75;;;;;;;10.53;78.95;99372.69;1735448;82;21470;-46
2021/11/20 10:47:16;;;;;;;13.93;2.75;;;;;;;10.51;79.36;99385.27;1735155;82;20933;-46
2021/11/20 10:50:04;;;;;;;14.10;2.95;;;;;;;10.48;78.74;99382.34;1735631;82;26636;-45
2021/11/20 10:53:11;;;;;;;3.67;2.90;;;;;;;10.48;78.70;99396.56;1735524;82;21753;-45
2021/11/20 10:56:03;;;;;;;23.90;3.72;;;;;;;10.54;78.29;99391.20;1734882;82;20956;-45
2021/11/20 10:58:47;;;;;;;9.65;3.00;;;;;;;10.52;77.91;99394.30;1735174;82;20921;-45
2021/11/20 11:01:57;;;;;;;16.02;3.70;;;;;;;10.48;77.73;99389.66;1701535;82;20965;-45
2021/11/20 11:05:18;;;;;;;27.15;3.27;;;;;;;10.44;77.77;99384.64;1735319;82;20993;-45
2021/11/20 11:08:22;;;;;;;13.08;3.05;;;;;;;10.44;76.97;99385.94;1735322;81;21161;-46
2021/11/20 11:10:57;;;;;;;38.20;3.95;;;;;;;10.42;76.41;99385.14;1735200;82;20937;-45
2021/11/20 11:14:02;;;;;;;32.20;3.65;;;;;;;10.44;77.17;99387.23;1735501;82;20917;-45
2021/11/20 11:16:48;;;;;;;44.50;4.30;;;;;;;10.49;77.07;99395.70;1742562;82;21560;-45
2021/11/20 11:19:40;;;;;;;93.05;5.28;;;;;;;10.64;76.31;99383.49;1749402;82;20983;-45
2021/11/20 11:22:24;;;;;;;3.98;1.95;;;;;;;10.73;75.00;99395.27;1749602;80;21112;-45
2021/11/20 11:25:02;;;;;;;5.65;2.20;;;;;;;10.71;74.77;99382.83;1748512;80;20921;-45
2021/11/20 11:28:07;;;;;;;16.30;2.85;;;;;;;10.71;74.68;99387.14;1743326;82;20995;-45
2021/11/20 11:31:17;;;;;;;6.50;3.10;;;;;;;10.72;74.77;99394.02;1732066;82;21003;-45
2021/11/20 11:33:49;;;;;;;35.05;3.85;;;;;;;10.72;73.68;99390.13;1748774;82;21419;-45
2021/11/20 11:36:36;;;;;;;70.50;5.53;;;;;;;10.58;73.97;99395.36;1748477;82;21086;-45
2021/11/20 11:39:48;;;;;;;17.05;3.67;;;;;;;10.54;74.15;99398.10;1749227;82;20920;-45
2021/11/20 11:42:30;;;;;;;107.05;6.78;;;;;;;10.52;74.39;99396.88;1749266;82;20921;-45
2021/11/20 11:45:48;;;;;;;122.37;7.17;;;;;;;10.61;74.24;99405.60;1749265;82;20881;-45
2021/11/20 11:48:54;;;;;;;25.15;4.17;;;;;;;10.66;73.57;99403.30;1749357;82;20983;-45
2021/11/20 11:51:40;;;;;;;11.43;3.30;;;;;;;10.66;72.84;99408.47;1749217;82;21025;-45
2021/11/20 11:54:18;;;;;;;43.42;5.33;;;;;;;10.61;72.77;99401.72;1749278;82;20996;-45
2021/11/20 11:56:59;;;;;;;11.38;3.60;;;;;;;10.55;72.88;99406.26;1749230;82;21466;-45
2021/11/20 12:42:01;;;;;;;89.58;6.25;;;;;;;10.66;69.62;99458.94;1826802;78;22717;-44
2021/11/20 12:45:04;;;;;;;36.80;4.05;;;;;;;10.55;69.88;99487.34;1828793;77;20973;-45
2021/11/20 12:48:14;;;;;;;464.80;19.37;;;;;;;10.41;70.12;99475.30;1826383;78;21827;-45